Аэропорт: Кольцово. Екатеринбург

ICAO: USSS

METAR:
2022-01-28 08:30:00
USSS 280830Z 19003MPS 9000 NSC M11/M14 Q1021 R26L/31//50 R26R/31//50 NOSIG RMK QFE745/0993
METAR:
2022-01-28 04:55:00
TAF USSS 280455Z 2806/2906 23003G08MPS 6000 SCT016 BECMG 2814/2817 14003G08MPS TEMPO 2817/2906 SCT011